createdAt,value
2022-09-01T00:01:21.955Z,20.10
2022-09-01T00:04:09.900Z,20.10
2022-09-01T00:06:55.671Z,20.00
2022-09-01T00:09:41.284Z,20.00
2022-09-01T00:12:28.007Z,19.90
2022-09-01T00:15:14.216Z,19.80
2022-09-01T00:17:59.179Z,19.70
2022-09-01T00:20:44.586Z,19.70
2022-09-01T00:23:30.155Z,19.60
2022-09-01T00:26:15.532Z,19.70
2022-09-01T00:29:01.213Z,19.60
2022-09-01T00:31:47.035Z,19.60
2022-09-01T00:34:32.527Z,19.60
2022-09-01T00:37:17.920Z,19.50
2022-09-01T00:40:04.004Z,19.50
2022-09-01T00:42:49.313Z,19.50
2022-09-01T00:45:34.603Z,19.50
2022-09-01T00:48:21.752Z,19.50
2022-09-01T00:51:11.010Z,19.50
2022-09-01T00:53:58.577Z,19.50
2022-09-01T00:56:46.533Z,19.50
2022-09-01T00:59:35.403Z,19.50
2022-09-01T01:02:20.851Z,19.50
2022-09-01T01:05:07.479Z,19.40
2022-09-01T01:07:57.165Z,19.30
2022-09-01T01:10:42.476Z,19.30
2022-09-01T01:13:36.120Z,19.40
2022-09-01T01:16:24.217Z,19.40
2022-09-01T01:19:41.774Z,19.30
2022-09-01T01:22:55.872Z,19.20
2022-09-01T01:25:45.121Z,19.20
2022-09-01T01:28:35.635Z,19.10
2022-09-01T01:31:23.196Z,19.10
2022-09-01T01:34:08.820Z,19.10
2022-09-01T01:36:55.143Z,19.10
2022-09-01T01:39:42.817Z,19.00
2022-09-01T01:42:29.528Z,19.00
2022-09-01T01:45:19.498Z,19.00
2022-09-01T01:48:06.536Z,18.90
2022-09-01T01:50:53.663Z,19.00
2022-09-01T01:53:39.533Z,19.00
2022-09-01T01:56:25.550Z,19.00
2022-09-01T01:59:16.752Z,19.00
2022-09-01T02:02:03.708Z,18.80
2022-09-01T02:04:49.157Z,18.80
2022-09-01T02:07:34.450Z,18.80
2022-09-01T02:10:20.625Z,18.70
2022-09-01T02:13:07.565Z,18.70
2022-09-01T02:15:55.401Z,18.70
2022-09-01T02:18:48.508Z,18.70
2022-09-01T02:21:34.012Z,18.80
2022-09-01T02:24:20.520Z,18.80
2022-09-01T02:27:06.328Z,18.80
2022-09-01T02:29:54.607Z,18.80
2022-09-01T02:32:41.801Z,18.80
2022-09-01T02:35:36.789Z,18.80
2022-09-01T02:38:26.053Z,18.70
2022-09-01T02:41:13.860Z,18.70
2022-09-01T02:44:02.262Z,18.70
2022-09-01T02:46:48.938Z,18.60
2022-09-01T02:49:35.928Z,18.60
2022-09-01T02:52:20.960Z,18.50
2022-09-01T02:55:08.587Z,18.50
2022-09-01T02:57:58.168Z,18.50
2022-09-01T03:00:44.588Z,18.50
2022-09-01T03:03:29.947Z,18.50
2022-09-01T03:06:18.395Z,18.50
2022-09-01T03:09:11.331Z,18.50
2022-09-01T03:11:56.681Z,18.40
2022-09-01T03:14:42.113Z,18.40
2022-09-01T03:17:27.483Z,18.30
2022-09-01T03:20:12.895Z,18.30
2022-09-01T03:22:59.137Z,18.30
2022-09-01T03:25:46.203Z,18.20
2022-09-01T03:28:31.936Z,18.20
2022-09-01T03:31:18.885Z,18.20
2022-09-01T03:34:05.973Z,18.20
2022-09-01T03:36:51.422Z,18.10
2022-09-01T03:39:36.809Z,18.20
2022-09-01T03:42:22.820Z,18.20
2022-09-01T03:45:09.112Z,18.10
2022-09-01T03:47:55.034Z,18.20
2022-09-01T03:50:45.255Z,18.20
2022-09-01T03:53:35.013Z,18.20
2022-09-01T03:56:20.383Z,18.10
2022-09-01T03:59:05.315Z,18.10
2022-09-01T04:01:52.658Z,18.10
2022-09-01T04:04:38.125Z,18.10
2022-09-01T04:07:24.078Z,18.10
2022-09-01T04:10:11.504Z,18.10
2022-09-01T04:12:58.796Z,18.00
2022-09-01T04:15:44.211Z,18.00
2022-09-01T04:18:30.539Z,17.90
2022-09-01T04:21:15.707Z,17.80
2022-09-01T04:24:05.160Z,17.80
2022-09-01T04:26:51.888Z,17.80
2022-09-01T04:29:37.237Z,17.80
2022-09-01T04:32:24.306Z,17.80
2022-09-01T04:35:16.800Z,17.80
2022-09-01T04:38:02.765Z,17.80
2022-09-01T04:40:49.489Z,17.80
2022-09-01T04:43:35.637Z,17.80
2022-09-01T04:46:21.196Z,17.80
2022-09-01T04:49:12.939Z,17.70
2022-09-01T04:51:58.688Z,17.80
2022-09-01T04:54:44.763Z,17.70
2022-09-01T04:57:31.081Z,17.60
2022-09-01T05:00:22.536Z,17.60
2022-09-01T05:03:09.211Z,17.60
2022-09-01T05:05:54.419Z,17.30
2022-09-01T05:08:41.921Z,17.20
2022-09-01T05:11:29.779Z,17.30
2022-09-01T05:14:18.963Z,17.30
2022-09-01T05:17:10.197Z,17.30
2022-09-01T05:19:56.230Z,17.50
2022-09-01T05:22:41.986Z,17.40
2022-09-01T05:25:27.398Z,17.50
2022-09-01T05:28:13.008Z,17.60
2022-09-01T05:31:01.001Z,17.40
2022-09-01T05:33:49.954Z,17.30
2022-09-01T05:36:36.304Z,17.40
2022-09-01T05:39:21.779Z,17.40
2022-09-01T05:42:08.382Z,17.50
2022-09-01T05:44:53.645Z,17.50
2022-09-01T05:47:39.588Z,17.20
2022-09-01T05:50:25.828Z,17.20
2022-09-01T05:53:18.343Z,17.10
2022-09-01T05:56:09.374Z,17.20
2022-09-01T06:02:01.104Z,17.30
2022-09-01T06:04:47.104Z,17.40
2022-09-01T06:07:33.829Z,17.30
2022-09-01T06:10:19.239Z,17.50
2022-09-01T06:13:05.956Z,17.60
2022-09-01T06:15:58.305Z,17.70
2022-09-01T06:18:44.029Z,17.70
2022-09-01T06:21:29.275Z,17.70
2022-09-01T06:24:14.613Z,17.80
2022-09-01T06:26:59.879Z,17.80
2022-09-01T06:29:45.445Z,17.70
2022-09-01T06:32:30.686Z,17.70
2022-09-01T06:35:17.809Z,17.80
2022-09-01T06:38:04.801Z,17.90
2022-09-01T06:40:54.641Z,17.90
2022-09-01T06:43:41.760Z,17.90
2022-09-01T06:46:27.916Z,17.90
2022-09-01T06:49:13.196Z,18.00
2022-09-01T06:52:00.449Z,18.00
2022-09-01T06:54:45.647Z,18.20
2022-09-01T07:00:41.791Z,18.30
2022-09-01T07:03:27.443Z,18.20
2022-09-01T07:06:59.075Z,18.30
2022-09-01T07:09:21.637Z,18.40
2022-09-01T07:16:31.975Z,18.40
2022-09-01T07:18:37.033Z,18.60
2022-09-01T07:21:40.825Z,18.60
2022-09-01T07:24:31.791Z,18.60
2022-09-01T07:27:19.305Z,18.70
2022-09-01T07:30:13.734Z,18.70
2022-09-01T07:33:41.557Z,18.80
2022-09-01T07:45:26.836Z,19.00
2022-09-01T07:48:35.984Z,19.10
2022-09-01T07:51:38.592Z,19.20
2022-09-01T07:54:25.152Z,19.20
2022-09-01T07:57:10.443Z,19.40
2022-09-01T07:59:57.594Z,19.40
2022-09-01T08:02:46.605Z,19.30
2022-09-01T08:05:33.665Z,19.50
2022-09-01T08:08:21.838Z,19.50
2022-09-01T08:11:15.332Z,19.50
2022-09-01T08:14:00.883Z,19.60
2022-09-01T08:16:53.456Z,19.80
2022-09-01T08:19:39.127Z,19.80
2022-09-01T08:22:25.549Z,19.90
2022-09-01T08:25:10.976Z,19.80
2022-09-01T08:28:00.357Z,19.70
2022-09-01T08:30:52.555Z,19.60
2022-09-01T08:33:39.377Z,19.60
2022-09-01T08:36:26.009Z,19.90
2022-09-01T08:39:11.743Z,20.00
2022-09-01T08:42:02.872Z,20.00
2022-09-01T08:45:21.411Z,20.10
2022-09-01T08:52:11.569Z,20.20
2022-09-01T08:54:59.769Z,20.10
2022-09-01T08:57:47.712Z,20.10
2022-09-01T09:00:50.543Z,20.10
2022-09-01T09:04:27.814Z,20.10
2022-09-01T09:07:29.410Z,20.30
2022-09-01T09:10:47.902Z,20.40
2022-09-01T09:14:04.926Z,20.40
2022-09-01T09:16:54.015Z,20.50
2022-09-01T09:19:45.210Z,20.60
2022-09-01T09:22:31.733Z,20.80
2022-09-01T09:25:19.313Z,20.90
2022-09-01T09:28:05.149Z,20.90
2022-09-01T09:30:50.535Z,20.90
2022-09-01T09:33:51.267Z,21.00
2022-09-01T09:36:41.633Z,21.20
2022-09-01T09:39:27.070Z,21.40
2022-09-01T09:42:16.021Z,21.30
2022-09-01T09:45:01.961Z,21.40
2022-09-01T09:47:47.594Z,21.60
2022-09-01T09:50:39.257Z,21.60
2022-09-01T09:53:26.184Z,21.80
2022-09-01T09:56:20.174Z,21.90
2022-09-01T09:59:53.692Z,22.10
2022-09-01T10:02:44.014Z,22.20
2022-09-01T10:05:34.850Z,22.30
2022-09-01T10:08:26.241Z,22.40
2022-09-01T10:11:28.934Z,22.30
2022-09-01T10:14:35.343Z,22.30
2022-09-01T10:17:43.663Z,22.30
2022-09-01T10:20:29.606Z,22.20
2022-09-01T10:23:15.692Z,22.30
2022-09-01T10:26:23.663Z,22.30
2022-09-01T10:29:34.623Z,22.40
2022-09-01T10:32:36.849Z,22.40
2022-09-01T10:35:35.552Z,22.40
2022-09-01T10:38:26.760Z,22.50
2022-09-01T10:42:00.417Z,22.50
2022-09-01T10:44:57.786Z,22.40
2022-09-01T10:47:43.788Z,22.50
2022-09-01T10:50:35.350Z,22.60
2022-09-01T10:53:36.143Z,22.50
2022-09-01T10:56:51.303Z,22.40
2022-09-01T10:59:41.898Z,22.20
2022-09-01T11:02:35.825Z,22.30
2022-09-01T11:05:21.737Z,22.30
2022-09-01T11:08:39.740Z,22.20
2022-09-01T11:11:44.288Z,22.20
2022-09-01T11:14:35.668Z,22.40
2022-09-01T11:17:27.434Z,22.50
2022-09-01T11:20:29.417Z,22.80
2022-09-01T11:23:27.984Z,23.10
2022-09-01T11:26:32.399Z,23.60
2022-09-01T11:29:56.997Z,23.60
2022-09-01T11:32:47.019Z,23.50
2022-09-01T11:35:32.762Z,23.60
2022-09-01T11:38:19.477Z,23.40
2022-09-01T11:41:05.108Z,23.40
2022-09-01T11:43:54.258Z,23.40
2022-09-01T11:46:43.188Z,23.60
2022-09-01T11:49:33.362Z,23.70
2022-09-01T11:52:21.295Z,23.60
2022-09-01T11:55:09.361Z,23.50
2022-09-01T11:57:54.372Z,23.60
2022-09-01T12:00:44.472Z,23.40
2022-09-01T12:03:30.614Z,23.60
2022-09-01T12:06:23.435Z,23.70
2022-09-01T12:09:08.527Z,23.90
2022-09-01T12:11:54.197Z,24.20
2022-09-01T12:15:04.292Z,24.80
2022-09-01T12:17:44.872Z,25.10
2022-09-01T12:20:35.073Z,25.30
2022-09-01T12:23:30.991Z,25.30
2022-09-01T12:26:30.224Z,25.30
2022-09-01T12:29:16.772Z,25.00
2022-09-01T12:32:02.277Z,25.10
2022-09-01T12:35:13.268Z,25.00
2022-09-01T12:38:37.143Z,25.20
2022-09-01T12:41:34.778Z,25.80
2022-09-01T12:44:34.625Z,25.80
2022-09-01T12:47:38.425Z,26.00
2022-09-01T12:50:27.284Z,26.50
2022-09-01T12:53:19.722Z,26.50
2022-09-01T12:56:17.606Z,26.60
2022-09-01T12:59:14.127Z,26.40
2022-09-01T13:02:37.586Z,26.20
2022-09-01T13:05:43.023Z,26.60
2022-09-01T13:08:30.946Z,26.70
2022-09-01T13:11:20.216Z,26.20
2022-09-01T13:14:05.451Z,26.10
2022-09-01T13:16:50.837Z,26.20
2022-09-01T13:19:36.137Z,26.70
2022-09-01T13:22:21.633Z,26.80
2022-09-01T13:25:06.876Z,27.50
2022-09-01T13:27:54.783Z,27.90
2022-09-01T13:30:40.867Z,28.30
2022-09-01T13:33:27.945Z,28.90
2022-09-01T13:39:20.357Z,29.30
2022-09-01T13:42:06.496Z,28.90
2022-09-01T13:44:55.153Z,28.70
2022-09-01T13:53:56.476Z,27.70
2022-09-01T13:56:41.784Z,27.40
2022-09-01T13:59:27.255Z,27.10
2022-09-01T14:02:12.572Z,26.90
2022-09-01T14:04:57.783Z,26.50
2022-09-01T14:07:43.282Z,26.40
2022-09-01T14:10:31.784Z,26.20
2022-09-01T14:13:18.252Z,26.00
2022-09-01T14:16:10.728Z,25.90
2022-09-01T14:18:56.414Z,25.70
2022-09-01T14:21:42.204Z,25.60
2022-09-01T14:24:28.004Z,25.50
2022-09-01T14:27:13.517Z,25.40
2022-09-01T14:29:59.027Z,25.20
2022-09-01T14:32:44.974Z,25.20
2022-09-01T14:35:33.605Z,25.00
2022-09-01T14:38:19.987Z,24.90
2022-09-01T14:41:05.560Z,24.70
2022-09-01T14:43:55.480Z,24.70
2022-09-01T14:46:43.700Z,24.70
2022-09-01T14:49:33.487Z,24.70
2022-09-01T14:52:19.277Z,24.60
2022-09-01T14:55:05.481Z,24.50
2022-09-01T14:57:51.768Z,24.60
2022-09-01T15:00:37.404Z,24.50
2022-09-01T15:03:24.088Z,24.60
2022-09-01T15:06:13.580Z,24.50
2022-09-01T15:08:59.829Z,24.60
2022-09-01T15:11:45.688Z,24.70
2022-09-01T15:14:32.735Z,24.60
2022-09-01T15:17:18.351Z,24.50
2022-09-01T15:20:24.191Z,24.60
2022-09-01T15:23:10.038Z,24.60
2022-09-01T15:25:56.080Z,24.50
2022-09-01T15:28:41.589Z,24.40
2022-09-01T15:31:32.814Z,24.20
2022-09-01T15:34:18.942Z,24.20
2022-09-01T15:37:04.904Z,23.90
2022-09-01T15:39:50.033Z,24.00
2022-09-01T15:42:36.887Z,23.80
2022-09-01T15:45:24.611Z,23.70
2022-09-01T15:48:09.541Z,23.80
2022-09-01T15:51:15.734Z,23.80
2022-09-01T15:54:04.484Z,23.70
2022-09-01T15:56:49.731Z,23.60
2022-09-01T15:59:35.828Z,23.70
2022-09-01T16:02:23.410Z,23.70
2022-09-01T16:05:10.107Z,23.80
2022-09-01T16:10:42.355Z,24.00
2022-09-01T16:13:27.883Z,24.00
2022-09-01T16:16:42.448Z,24.30
2022-09-01T16:20:01.573Z,24.50
2022-09-01T16:23:10.521Z,24.60
2022-09-01T16:26:00.108Z,24.50
2022-09-01T16:28:48.920Z,24.50
2022-09-01T16:31:34.297Z,24.50
2022-09-01T16:34:19.674Z,24.20
2022-09-01T16:37:18.108Z,24.10
2022-09-01T16:40:42.102Z,24.20
2022-09-01T16:43:34.485Z,24.30
2022-09-01T16:46:29.174Z,24.70
2022-09-01T16:49:34.709Z,24.90
2022-09-01T16:52:25.274Z,25.00
2022-09-01T16:55:26.600Z,25.20
2022-09-01T16:58:22.578Z,25.20
2022-09-01T17:01:30.199Z,25.20
2022-09-01T17:04:36.884Z,25.00
2022-09-01T17:07:49.836Z,25.00
2022-09-01T17:10:58.360Z,24.80
2022-09-01T17:13:51.174Z,24.70
2022-09-01T17:16:44.308Z,24.60
2022-09-01T17:19:29.304Z,24.30
2022-09-01T17:22:15.829Z,24.20
2022-09-01T17:25:12.736Z,24.10
2022-09-01T17:28:15.027Z,24.00
2022-09-01T17:31:44.140Z,23.90
2022-09-01T17:34:38.732Z,23.70
2022-09-01T17:37:39.950Z,23.60
2022-09-01T17:40:47.423Z,23.60
2022-09-01T17:43:51.486Z,23.40
2022-09-01T17:46:50.545Z,23.30
2022-09-01T17:49:47.441Z,23.30
2022-09-01T17:52:56.965Z,23.10
2022-09-01T17:56:08.116Z,23.00
2022-09-01T17:59:26.844Z,23.00
2022-09-01T18:02:15.778Z,22.70
2022-09-01T18:05:16.226Z,22.50
2022-09-01T18:08:16.858Z,22.50
2022-09-01T18:11:25.121Z,22.40
2022-09-01T18:14:20.182Z,22.30
2022-09-01T18:17:33.467Z,22.20
2022-09-01T18:20:27.496Z,22.00
2022-09-01T18:23:18.971Z,22.10
2022-09-01T18:26:33.877Z,22.20
2022-09-01T18:29:20.082Z,22.10
2022-09-01T18:32:19.315Z,21.90
2022-09-01T18:35:20.111Z,21.70
2022-09-01T18:38:14.077Z,21.70
2022-09-01T18:41:39.413Z,21.80
2022-09-01T18:44:38.161Z,21.70
2022-09-01T18:47:31.769Z,21.70
2022-09-01T18:50:45.715Z,21.70
2022-09-01T18:53:48.099Z,21.70
2022-09-01T18:57:01.259Z,21.70
2022-09-01T19:00:17.948Z,21.70
2022-09-01T19:03:24.889Z,21.60
2022-09-01T19:06:35.592Z,21.60
2022-09-01T19:09:33.539Z,21.50
2022-09-01T19:12:46.979Z,21.50
2022-09-01T19:15:56.965Z,21.40
2022-09-01T19:19:10.660Z,21.30
2022-09-01T19:21:56.327Z,21.20
2022-09-01T19:24:50.772Z,21.10
2022-09-01T19:27:36.584Z,21.20
2022-09-01T19:30:21.853Z,21.30
2022-09-01T19:33:11.184Z,21.20
2022-09-01T19:36:02.260Z,21.20
2022-09-01T19:38:47.624Z,21.10
2022-09-01T19:41:42.913Z,21.00
2022-09-01T19:44:27.919Z,21.00
2022-09-01T19:47:40.321Z,20.90
2022-09-01T19:50:52.792Z,20.90
2022-09-01T19:53:51.227Z,20.80
2022-09-01T19:56:58.309Z,20.80
2022-09-01T19:59:49.811Z,20.70
2022-09-01T20:02:41.739Z,20.70
2022-09-01T20:05:35.716Z,20.70
2022-09-01T20:08:35.983Z,20.70
2022-09-01T20:11:39.643Z,20.70
2022-09-01T20:14:49.966Z,20.70
2022-09-01T20:18:11.375Z,20.50
2022-09-01T20:20:59.988Z,20.50
2022-09-01T20:23:57.443Z,20.50
2022-09-01T20:27:05.254Z,20.40
2022-09-01T20:30:01.338Z,20.40
2022-09-01T20:33:20.454Z,20.40
2022-09-01T20:36:32.229Z,20.50
2022-09-01T20:39:56.681Z,20.50
2022-09-01T20:42:45.068Z,20.40
2022-09-01T20:45:31.882Z,20.30
2022-09-01T20:48:26.483Z,20.30
2022-09-01T20:51:17.847Z,20.20
2022-09-01T20:54:14.925Z,20.10
2022-09-01T20:57:08.751Z,20.10
2022-09-01T20:59:57.625Z,20.10
2022-09-01T21:03:06.088Z,20.00
2022-09-01T21:06:22.979Z,20.00
2022-09-01T21:09:26.057Z,19.90
2022-09-01T21:12:24.004Z,19.90
2022-09-01T21:15:30.162Z,19.90
2022-09-01T21:18:59.055Z,19.90
2022-09-01T21:22:11.310Z,19.80
2022-09-01T21:24:56.499Z,19.80
2022-09-01T21:27:51.277Z,19.80
2022-09-01T21:30:36.783Z,19.70
2022-09-01T21:33:27.765Z,19.70
2022-09-01T21:36:13.086Z,19.60
2022-09-01T21:38:58.624Z,19.60
2022-09-01T21:41:44.267Z,19.40
2022-09-01T21:44:30.032Z,19.40
2022-09-01T21:47:15.509Z,19.40
2022-09-01T21:50:00.989Z,19.40
2022-09-01T21:52:46.983Z,19.40
2022-09-01T21:55:32.516Z,19.30
2022-09-01T21:58:18.432Z,19.40
2022-09-01T22:01:04.981Z,19.30
2022-09-01T22:03:50.159Z,19.30
2022-09-01T22:06:35.540Z,19.30
2022-09-01T22:09:21.892Z,19.30
2022-09-01T22:12:07.237Z,19.30
2022-09-01T22:14:52.915Z,19.30
2022-09-01T22:17:38.544Z,19.30
2022-09-01T22:20:25.415Z,19.20
2022-09-01T22:23:12.240Z,19.20
2022-09-01T22:25:57.294Z,19.20
2022-09-01T22:28:42.837Z,19.00
2022-09-01T22:31:30.219Z,19.00
2022-09-01T22:34:15.730Z,18.90
2022-09-01T22:37:01.701Z,18.80
2022-09-01T22:39:46.988Z,18.80
2022-09-01T22:42:32.607Z,18.80
2022-09-01T22:45:18.041Z,18.80
2022-09-01T22:48:03.535Z,18.70
2022-09-01T22:50:50.270Z,18.70
2022-09-01T22:53:37.138Z,18.60
2022-09-01T22:56:25.965Z,18.60
2022-09-01T22:59:13.811Z,18.50
2022-09-01T23:02:01.645Z,18.50
2022-09-01T23:04:47.721Z,18.40
2022-09-01T23:07:37.556Z,18.40
2022-09-01T23:10:25.650Z,18.20
2022-09-01T23:13:11.022Z,18.20
2022-09-01T23:15:58.648Z,18.20
2022-09-01T23:18:46.459Z,18.20
2022-09-01T23:21:34.503Z,18.20
2022-09-01T23:24:20.489Z,18.20
2022-09-01T23:27:05.795Z,18.10
2022-09-01T23:29:51.289Z,18.00
2022-09-01T23:32:37.199Z,18.00
2022-09-01T23:35:22.476Z,18.10
2022-09-01T23:38:07.731Z,18.10
2022-09-01T23:40:55.431Z,18.00
2022-09-01T23:43:41.167Z,17.90
2022-09-01T23:46:28.812Z,18.00
2022-09-01T23:49:16.321Z,17.90
2022-09-01T23:52:01.851Z,17.90
2022-09-01T23:54:47.163Z,17.90
2022-09-01T23:57:32.589Z,17.90
